X  Close Metar Aviation Weather Data     EBBR Brussels
Temperature
7°C Temperature
6°C Dewpoint
93% Humidity



Wind
14 KM/H
9 MPH
4 M/S
8 KTS



200°
SSW
Current Conditions

Clear Clear
Pressure 997.92 (hPa) - 29.47 (inHg)
Visibility 6.2 (mile) - 10 (km)
Airport
Airport-code EBBR

Location: Brussels
Distance: 14 (km)

Metar:
EBBR 060250Z 20008KT CAVOK 07/06 Q0998 NOSIG

Time: 06-06-2020 04:50 CEST